sensor_id;sensor_type;location;lat;lon;timestamp;pressure;altitude;pressure_sealevel;temperature;humidity
48041;BME280;33815;48.386;11.738;2022-08-30T00:00:09;96807.06;;;12.51;100.00
48041;BME280;33815;48.386;11.738;2022-08-30T00:02:54;96807.88;;;12.52;100.00
48041;BME280;33815;48.386;11.738;2022-08-30T00:05:19;96809.84;;;12.50;100.00
48041;BME280;33815;48.386;11.738;2022-08-30T00:07:45;96807.06;;;12.51;100.00
48041;BME280;33815;48.386;11.738;2022-08-30T00:10:10;96796.91;;;12.48;100.00
48041;BME280;33815;48.386;11.738;2022-08-30T00:12:37;96801.16;;;12.49;100.00
48041;BME280;33815;48.386;11.738;2022-08-30T00:15:03;96780.84;;;12.35;100.00
48041;BME280;33815;48.386;11.738;2022-08-30T00:17:29;96801.94;;;12.42;100.00
48041;BME280;33815;48.386;11.738;2022-08-30T00:19:54;96805.38;;;12.42;100.00
48041;BME280;33815;48.386;11.738;2022-08-30T00:22:20;96807.63;;;12.37;100.00
48041;BME280;33815;48.386;11.738;2022-08-30T00:24:45;96804.84;;;12.30;100.00
48041;BME280;33815;48.386;11.738;2022-08-30T00:27:11;96804.31;;;12.27;100.00
48041;BME280;33815;48.386;11.738;2022-08-30T00:29:36;96812.16;;;12.27;100.00
48041;BME280;33815;48.386;11.738;2022-08-30T00:32:01;96798.72;;;12.22;100.00
48041;BME280;33815;48.386;11.738;2022-08-30T00:34:27;96792.78;;;12.11;100.00
48041;BME280;33815;48.386;11.738;2022-08-30T00:36:53;96804.72;;;12.14;100.00
48041;BME280;33815;48.386;11.738;2022-08-30T00:39:18;96804.22;;;12.10;100.00
48041;BME280;33815;48.386;11.738;2022-08-30T00:41:43;96786.34;;;11.97;100.00
48041;BME280;33815;48.386;11.738;2022-08-30T00:44:08;96806.47;;;12.05;100.00
48041;BME280;33815;48.386;11.738;2022-08-30T00:46:34;96797.00;;;12.04;100.00
48041;BME280;33815;48.386;11.738;2022-08-30T00:49:02;96799.47;;;12.06;100.00
48041;BME280;33815;48.386;11.738;2022-08-30T00:51:29;96796.19;;;12.04;100.00
48041;BME280;33815;48.386;11.738;2022-08-30T00:53:56;96786.72;;;12.03;100.00
48041;BME280;33815;48.386;11.738;2022-08-30T00:56:22;96792.59;;;12.05;100.00
48041;BME280;33815;48.386;11.738;2022-08-30T00:58:51;96793.06;;;12.00;100.00
48041;BME280;33815;48.386;11.738;2022-08-30T01:01:17;96792.41;;;11.98;100.00
48041;BME280;33815;48.386;11.738;2022-08-30T01:03:43;96792.81;;;11.93;100.00
48041;BME280;33815;48.386;11.738;2022-08-30T01:06:09;96792.31;;;11.90;100.00
48041;BME280;33815;48.386;11.738;2022-08-30T01:08:35;96785.91;;;11.84;100.00
48041;BME280;33815;48.386;11.738;2022-08-30T01:11:01;96797.97;;;11.85;100.00
48041;BME280;33815;48.386;11.738;2022-08-30T01:13:28;96794.41;;;11.86;100.00
48041;BME280;33815;48.386;11.738;2022-08-30T01:15:54;96786.00;;;11.74;100.00
48041;BME280;33815;48.386;11.738;2022-08-30T01:18:21;96793.91;;;11.82;100.00
48041;BME280;33815;48.386;11.738;2022-08-30T01:23:50;96801.75;;;11.82;100.00
48041;BME280;33815;48.386;11.738;2022-08-30T01:26:18;96789.97;;;11.78;100.00
48041;BME280;33815;48.386;11.738;2022-08-30T01:28:46;96794.66;;;11.75;100.00
48041;BME280;33815;48.386;11.738;2022-08-30T01:31:13;96798.06;;;11.75;100.00
48041;BME280;33815;48.386;11.738;2022-08-30T01:33:38;96798.22;;;11.74;100.00
48041;BME280;33815;48.386;11.738;2022-08-30T01:36:07;96796.06;;;11.69;100.00
48041;BME280;33815;48.386;11.738;2022-08-30T01:38:39;96795.78;;;11.72;100.00
48041;BME280;33815;48.386;11.738;2022-08-30T01:41:15;96795.13;;;11.70;100.00
48041;BME280;33815;48.386;11.738;2022-08-30T01:43:41;96791.47;;;11.63;100.00
48041;BME280;33815;48.386;11.738;2022-08-30T01:46:07;96790.47;;;11.64;100.00
48041;BME280;33815;48.386;11.738;2022-08-30T01:48:35;96792.44;;;11.62;100.00
48041;BME280;33815;48.386;11.738;2022-08-30T01:51:00;96785.34;;;11.54;100.00
48041;BME280;33815;48.386;11.738;2022-08-30T01:53:26;96800.28;;;11.62;100.00
48041;BME280;33815;48.386;11.738;2022-08-30T01:55:51;96802.19;;;11.60;100.00
48041;BME280;33815;48.386;11.738;2022-08-30T01:58:17;96805.81;;;11.59;100.00
48041;BME280;33815;48.386;11.738;2022-08-30T02:00:42;96799.25;;;11.55;100.00
48041;BME280;33815;48.386;11.738;2022-08-30T02:03:07;96796.94;;;11.52;100.00
48041;BME280;33815;48.386;11.738;2022-08-30T02:05:33;96785.44;;;11.44;100.00
48041;BME280;33815;48.386;11.738;2022-08-30T02:07:58;96778.00;;;11.31;100.00
48041;BME280;33815;48.386;11.738;2022-08-30T02:10:24;96796.34;;;11.40;100.00
48041;BME280;33815;48.386;11.738;2022-08-30T02:12:49;96792.53;;;11.34;100.00
48041;BME280;33815;48.386;11.738;2022-08-30T02:15:14;96802.97;;;11.34;100.00
48041;BME280;33815;48.386;11.738;2022-08-30T02:17:40;96812.44;;;11.35;100.00
48041;BME280;33815;48.386;11.738;2022-08-30T02:20:07;96817.66;;;11.35;100.00
48041;BME280;33815;48.386;11.738;2022-08-30T02:22:32;96814.28;;;11.25;100.00
48041;BME280;33815;48.386;11.738;2022-08-30T02:24:57;96812.06;;;11.30;100.00
48041;BME280;33815;48.386;11.738;2022-08-30T02:27:23;96798.50;;;11.26;100.00
48041;BME280;33815;48.386;11.738;2022-08-30T02:29:50;96797.22;;;11.30;100.00
48041;BME280;33815;48.386;11.738;2022-08-30T02:32:16;96792.53;;;11.16;100.00
48041;BME280;33815;48.386;11.738;2022-08-30T02:34:41;96791.72;;;11.16;100.00
48041;BME280;33815;48.386;11.738;2022-08-30T02:37:06;96785.47;;;11.08;100.00
48041;BME280;33815;48.386;11.738;2022-08-30T02:39:33;96801.69;;;11.20;100.00
48041;BME280;33815;48.386;11.738;2022-08-30T02:41:58;96797.97;;;11.23;100.00
48041;BME280;33815;48.386;11.738;2022-08-30T02:44:23;96797.03;;;11.24;100.00
48041;BME280;33815;48.386;11.738;2022-08-30T02:46:49;96802.22;;;11.24;100.00
48041;BME280;33815;48.386;11.738;2022-08-30T02:49:14;96784.47;;;11.09;100.00
48041;BME280;33815;48.386;11.738;2022-08-30T02:51:39;96796.94;;;11.16;100.00
48041;BME280;33815;48.386;11.738;2022-08-30T02:54:05;96803.94;;;11.15;100.00
48041;BME280;33815;48.386;11.738;2022-08-30T02:56:30;96805.06;;;11.12;100.00
48041;BME280;33815;48.386;11.738;2022-08-30T02:58:55;96795.50;;;11.03;100.00
48041;BME280;33815;48.386;11.738;2022-08-30T03:01:21;96807.94;;;11.09;100.00
48041;BME280;33815;48.386;11.738;2022-08-30T03:03:46;96801.91;;;11.09;100.00
48041;BME280;33815;48.386;11.738;2022-08-30T03:06:13;96796.31;;;11.04;100.00
48041;BME280;33815;48.386;11.738;2022-08-30T03:08:38;96792.91;;;11.03;100.00
48041;BME280;33815;48.386;11.738;2022-08-30T03:11:04;96808.25;;;11.06;100.00
48041;BME280;33815;48.386;11.738;2022-08-30T03:13:30;96788.94;;;10.99;100.00
48041;BME280;33815;48.386;11.738;2022-08-30T03:15:55;96806.91;;;11.02;100.00
48041;BME280;33815;48.386;11.738;2022-08-30T03:18:21;96800.06;;;11.01;100.00
48041;BME280;33815;48.386;11.738;2022-08-30T03:20:47;96812.13;;;11.02;100.00
48041;BME280;33815;48.386;11.738;2022-08-30T03:23:14;96815.72;;;11.01;100.00
48041;BME280;33815;48.386;11.738;2022-08-30T03:25:40;96812.56;;;10.97;100.00
48041;BME280;33815;48.386;11.738;2022-08-30T03:28:06;96809.97;;;10.97;100.00
48041;BME280;33815;48.386;11.738;2022-08-30T03:30:31;96806.53;;;10.97;100.00
48041;BME280;33815;48.386;11.738;2022-08-30T03:32:57;96814.50;;;10.95;100.00
48041;BME280;33815;48.386;11.738;2022-08-30T03:35:23;96812.03;;;10.94;100.00
48041;BME280;33815;48.386;11.738;2022-08-30T03:37:48;96798.94;;;10.86;100.00
48041;BME280;33815;48.386;11.738;2022-08-30T03:40:16;96806.31;;;10.90;100.00
48041;BME280;33815;48.386;11.738;2022-08-30T03:42:42;96808.16;;;10.98;100.00
48041;BME280;33815;48.386;11.738;2022-08-30T03:45:07;96806.91;;;11.02;100.00
48041;BME280;33815;48.386;11.738;2022-08-30T03:47:33;96802.66;;;11.01;100.00
48041;BME280;33815;48.386;11.738;2022-08-30T03:49:58;96795.81;;;11.00;100.00
48041;BME280;33815;48.386;11.738;2022-08-30T03:52:24;96778.72;;;10.88;100.00
48041;BME280;33815;48.386;11.738;2022-08-30T03:54:49;96792.00;;;10.94;100.00
48041;BME280;33815;48.386;11.738;2022-08-30T03:57:14;96798.47;;;10.90;100.00
48041;BME280;33815;48.386;11.738;2022-08-30T03:59:40;96796.44;;;10.84;100.00
48041;BME280;33815;48.386;11.738;2022-08-30T04:02:05;96787.56;;;10.77;100.00
48041;BME280;33815;48.386;11.738;2022-08-30T04:04:30;96800.03;;;10.83;100.00
48041;BME280;33815;48.386;11.738;2022-08-30T04:06:56;96799.50;;;10.79;100.00
48041;BME280;33815;48.386;11.738;2022-08-30T04:09:21;96798.28;;;10.74;100.00
48041;BME280;33815;48.386;11.738;2022-08-30T04:11:47;96807.31;;;10.79;100.00
48041;BME280;33815;48.386;11.738;2022-08-30T04:14:12;96786.50;;;10.70;100.00
48041;BME280;33815;48.386;11.738;2022-08-30T04:16:38;96810.06;;;10.78;100.00
48041;BME280;33815;48.386;11.738;2022-08-30T04:19:03;96811.56;;;10.80;100.00
48041;BME280;33815;48.386;11.738;2022-08-30T04:21:29;96806.09;;;10.74;100.00
48041;BME280;33815;48.386;11.738;2022-08-30T04:23:54;96808.28;;;10.78;100.00
48041;BME280;33815;48.386;11.738;2022-08-30T04:26:19;96817.88;;;10.78;100.00
48041;BME280;33815;48.386;11.738;2022-08-30T04:28:45;96816.09;;;10.78;100.00
48041;BME280;33815;48.386;11.738;2022-08-30T04:31:12;96824.47;;;10.82;100.00
48041;BME280;33815;48.386;11.738;2022-08-30T04:33:39;96812.00;;;10.76;100.00
48041;BME280;33815;48.386;11.738;2022-08-30T04:36:06;96818.03;;;10.76;100.00
48041;BME280;33815;48.386;11.738;2022-08-30T04:38:33;96826.25;;;10.82;100.00
48041;BME280;33815;48.386;11.738;2022-08-30T04:40:59;96824.59;;;10.80;100.00
48041;BME280;33815;48.386;11.738;2022-08-30T04:43:25;96832.94;;;10.84;100.00
48041;BME280;33815;48.386;11.738;2022-08-30T04:45:52;96831.69;;;10.88;100.00
48041;BME280;33815;48.386;11.738;2022-08-30T04:48:18;96836.47;;;10.93;100.00
48041;BME280;33815;48.386;11.738;2022-08-30T04:50:43;96819.09;;;10.84;100.00
48041;BME280;33815;48.386;11.738;2022-08-30T04:53:09;96842.22;;;10.96;100.00
48041;BME280;33815;48.386;11.738;2022-08-30T04:55:34;96831.28;;;10.93;100.00
48041;BME280;33815;48.386;11.738;2022-08-30T04:58:00;96847.22;;;11.08;100.00
48041;BME280;33815;48.386;11.738;2022-08-30T05:00:25;96840.91;;;11.10;100.00
48041;BME280;33815;48.386;11.738;2022-08-30T05:02:50;96853.22;;;11.18;100.00
48041;BME280;33815;48.386;11.738;2022-08-30T05:05:16;96857.31;;;11.21;100.00
48041;BME280;33815;48.386;11.738;2022-08-30T05:08:00;96858.28;;;11.20;100.00
48041;BME280;33815;48.386;11.738;2022-08-30T05:10:25;96863.66;;;11.18;100.00
48041;BME280;33815;48.386;11.738;2022-08-30T05:12:52;96861.03;;;11.18;100.00
48041;BME280;33815;48.386;11.738;2022-08-30T05:15:18;96874.03;;;11.28;100.00
48041;BME280;33815;48.386;11.738;2022-08-30T05:17:44;96871.13;;;11.31;100.00
48041;BME280;33815;48.386;11.738;2022-08-30T05:20:10;96868.34;;;11.32;100.00
48041;BME280;33815;48.386;11.738;2022-08-30T05:22:40;96869.03;;;11.35;100.00
48041;BME280;33815;48.386;11.738;2022-08-30T05:25:06;96860.69;;;11.31;100.00
48041;BME280;33815;48.386;11.738;2022-08-30T05:27:31;96861.06;;;11.36;100.00
48041;BME280;33815;48.386;11.738;2022-08-30T05:29:57;96859.78;;;11.40;100.00
48041;BME280;33815;48.386;11.738;2022-08-30T05:32:22;96871.22;;;11.57;100.00
48041;BME280;33815;48.386;11.738;2022-08-30T05:34:48;96866.13;;;11.56;100.00
48041;BME280;33815;48.386;11.738;2022-08-30T05:37:13;96855.41;;;11.59;100.00
48041;BME280;33815;48.386;11.738;2022-08-30T05:39:38;96875.06;;;11.71;100.00
48041;BME280;33815;48.386;11.738;2022-08-30T05:42:04;96877.25;;;11.76;100.00
48041;BME280;33815;48.386;11.738;2022-08-30T05:44:29;96876.78;;;11.80;100.00
48041;BME280;33815;48.386;11.738;2022-08-30T05:46:54;96875.53;;;11.85;100.00
48041;BME280;33815;48.386;11.738;2022-08-30T05:49:19;96875.59;;;11.93;100.00
48041;BME280;33815;48.386;11.738;2022-08-30T05:51:45;96872.53;;;11.97;100.00
48041;BME280;33815;48.386;11.738;2022-08-30T05:54:12;96872.75;;;12.04;100.00
48041;BME280;33815;48.386;11.738;2022-08-30T05:56:39;96874.75;;;12.10;100.00
48041;BME280;33815;48.386;11.738;2022-08-30T05:59:06;96842.69;;;12.00;100.00
48041;BME280;33815;48.386;11.738;2022-08-30T06:01:34;96874.72;;;12.28;100.00
48041;BME280;33815;48.386;11.738;2022-08-30T06:04:02;96856.94;;;12.32;100.00
48041;BME280;33815;48.386;11.738;2022-08-30T06:06:29;96879.25;;;12.44;100.00
48041;BME280;33815;48.386;11.738;2022-08-30T06:08:54;96876.69;;;12.53;100.00
48041;BME280;33815;48.386;11.738;2022-08-30T06:11:22;96873.13;;;12.62;100.00
48041;BME280;33815;48.386;11.738;2022-08-30T06:13:48;96879.19;;;12.71;100.00
48041;BME280;33815;48.386;11.738;2022-08-30T06:16:16;96879.06;;;12.80;100.00
48041;BME280;33815;48.386;11.738;2022-08-30T06:18:42;96866.03;;;12.89;100.00
48041;BME280;33815;48.386;11.738;2022-08-30T06:21:14;96876.56;;;13.05;100.00
48041;BME280;33815;48.386;11.738;2022-08-30T06:23:40;96867.78;;;13.14;100.00
48041;BME280;33815;48.386;11.738;2022-08-30T06:26:06;96858.63;;;13.27;100.00
48041;BME280;33815;48.386;11.738;2022-08-30T06:28:32;96874.75;;;13.48;100.00
48041;BME280;33815;48.386;11.738;2022-08-30T06:30:58;96868.06;;;13.62;100.00
48041;BME280;33815;48.386;11.738;2022-08-30T06:33:23;96867.56;;;13.75;100.00
48041;BME280;33815;48.386;11.738;2022-08-30T06:35:49;96861.50;;;13.91;100.00
48041;BME280;33815;48.386;11.738;2022-08-30T06:38:14;96865.59;;;14.10;100.00
48041;BME280;33815;48.386;11.738;2022-08-30T06:40:40;96858.06;;;14.15;100.00
48041;BME280;33815;48.386;11.738;2022-08-30T06:43:05;96874.59;;;14.32;100.00
48041;BME280;33815;48.386;11.738;2022-08-30T06:45:32;96870.31;;;14.39;100.00
48041;BME280;33815;48.386;11.738;2022-08-30T06:47:57;96879.47;;;14.52;100.00
48041;BME280;33815;48.386;11.738;2022-08-30T06:50:23;96874.53;;;14.65;100.00
48041;BME280;33815;48.386;11.738;2022-08-30T06:52:50;96877.13;;;14.82;100.00
48041;BME280;33815;48.386;11.738;2022-08-30T06:55:16;96876.56;;;14.95;100.00
48041;BME280;33815;48.386;11.738;2022-08-30T06:57:41;96872.09;;;15.03;100.00
48041;BME280;33815;48.386;11.738;2022-08-30T07:00:08;96867.47;;;15.14;100.00
48041;BME280;33815;48.386;11.738;2022-08-30T07:02:35;96860.22;;;15.16;100.00
48041;BME280;33815;48.386;11.738;2022-08-30T07:05:01;96871.38;;;15.49;100.00
48041;BME280;33815;48.386;11.738;2022-08-30T07:07:27;96867.41;;;15.53;100.00
48041;BME280;33815;48.386;11.738;2022-08-30T07:09:52;96864.19;;;15.66;100.00
48041;BME280;33815;48.386;11.738;2022-08-30T07:12:18;96882.94;;;15.86;100.00
48041;BME280;33815;48.386;11.738;2022-08-30T07:14:43;96879.38;;;16.02;100.00
48041;BME280;33815;48.386;11.738;2022-08-30T07:17:08;96874.63;;;16.21;100.00
48041;BME280;33815;48.386;11.738;2022-08-30T07:19:53;96873.31;;;16.40;100.00
48041;BME280;33815;48.386;11.738;2022-08-30T07:22:19;96876.31;;;16.67;100.00
48041;BME280;33815;48.386;11.738;2022-08-30T07:24:44;96863.41;;;16.87;100.00
48041;BME280;33815;48.386;11.738;2022-08-30T07:27:10;96855.53;;;17.02;100.00
48041;BME280;33815;48.386;11.738;2022-08-30T07:29:35;96867.03;;;17.52;100.00
48041;BME280;33815;48.386;11.738;2022-08-30T07:32:01;96868.97;;;17.65;100.00
48041;BME280;33815;48.386;11.738;2022-08-30T07:34:26;96869.41;;;17.90;100.00
48041;BME280;33815;48.386;11.738;2022-08-30T07:36:51;96862.16;;;17.92;100.00
48041;BME280;33815;48.386;11.738;2022-08-30T07:39:17;96871.28;;;18.18;100.00
48041;BME280;33815;48.386;11.738;2022-08-30T07:41:43;96876.75;;;18.45;100.00
48041;BME280;33815;48.386;11.738;2022-08-30T07:44:09;96878.31;;;19.03;100.00
48041;BME280;33815;48.386;11.738;2022-08-30T07:46:36;96872.31;;;19.22;100.00
48041;BME280;33815;48.386;11.738;2022-08-30T07:49:01;96857.38;;;19.76;100.00
48041;BME280;33815;48.386;11.738;2022-08-30T07:51:27;96862.09;;;20.68;96.33
48041;BME280;33815;48.386;11.738;2022-08-30T07:53:54;96858.69;;;21.13;99.24
48041;BME280;33815;48.386;11.738;2022-08-30T07:56:20;96859.97;;;21.42;97.74
48041;BME280;33815;48.386;11.738;2022-08-30T07:58:46;96866.03;;;21.49;93.44
48041;BME280;33815;48.386;11.738;2022-08-30T08:01:12;96866.75;;;21.31;90.57
48041;BME280;33815;48.386;11.738;2022-08-30T08:03:38;96858.97;;;21.36;91.28
48041;BME280;33815;48.386;11.738;2022-08-30T08:06:09;96851.97;;;21.03;91.60
48041;BME280;33815;48.386;11.738;2022-08-30T08:08:35;96854.28;;;21.32;99.41
48041;BME280;33815;48.386;11.738;2022-08-30T08:11:06;96847.47;;;21.49;93.67
48041;BME280;33815;48.386;11.738;2022-08-30T08:13:32;96851.38;;;21.53;93.59
48041;BME280;33815;48.386;11.738;2022-08-30T08:15:57;96848.13;;;21.77;93.31
48041;BME280;33815;48.386;11.738;2022-08-30T08:18:23;96849.34;;;21.81;91.92
48041;BME280;33815;48.386;11.738;2022-08-30T08:20:48;96851.47;;;21.65;91.87
48041;BME280;33815;48.386;11.738;2022-08-30T08:23:14;96849.47;;;21.61;94.94
48041;BME280;33815;48.386;11.738;2022-08-30T08:25:39;96851.28;;;21.92;91.23
48041;BME280;33815;48.386;11.738;2022-08-30T08:28:05;96855.75;;;21.66;89.23
48041;BME280;33815;48.386;11.738;2022-08-30T08:30:33;96855.56;;;21.93;94.43
48041;BME280;33815;48.386;11.738;2022-08-30T08:32:59;96852.00;;;22.06;91.03
48041;BME280;33815;48.386;11.738;2022-08-30T08:35:25;96848.97;;;22.02;88.71
48041;BME280;33815;48.386;11.738;2022-08-30T08:37:50;96857.66;;;21.91;88.62
48041;BME280;33815;48.386;11.738;2022-08-30T08:40:16;96856.94;;;22.02;90.81
48041;BME280;33815;48.386;11.738;2022-08-30T08:42:58;96854.44;;;22.07;91.87
48041;BME280;33815;48.386;11.738;2022-08-30T08:46:01;96849.09;;;22.58;89.92
48041;BME280;33815;48.386;11.738;2022-08-30T08:48:42;96847.78;;;22.86;87.15
48041;BME280;33815;48.386;11.738;2022-08-30T08:51:12;96846.59;;;22.63;84.84
48041;BME280;33815;48.386;11.738;2022-08-30T08:54:03;96853.16;;;22.79;80.04
48041;BME280;33815;48.386;11.738;2022-08-30T08:56:29;96840.47;;;23.00;80.51
48041;BME280;33815;48.386;11.738;2022-08-30T08:58:55;96850.94;;;23.32;84.08
48041;BME280;33815;48.386;11.738;2022-08-30T09:01:25;96849.75;;;23.58;80.08
48041;BME280;33815;48.386;11.738;2022-08-30T09:03:52;96841.59;;;23.41;80.95
48041;BME280;33815;48.386;11.738;2022-08-30T09:06:25;96843.78;;;23.74;81.51
48041;BME280;33815;48.386;11.738;2022-08-30T09:08:57;96843.78;;;23.74;76.51
48041;BME280;33815;48.386;11.738;2022-08-30T09:11:28;96859.41;;;24.13;77.48
48041;BME280;33815;48.386;11.738;2022-08-30T09:13:54;96860.09;;;24.32;72.18
48041;BME280;33815;48.386;11.738;2022-08-30T09:17:01;96853.41;;;24.29;72.24
48041;BME280;33815;48.386;11.738;2022-08-30T09:25:17;96838.91;;;24.73;69.00
48041;BME280;33815;48.386;11.738;2022-08-30T09:27:46;96845.84;;;24.50;64.84
48041;BME280;33815;48.386;11.738;2022-08-30T09:30:16;96842.97;;;24.63;71.13
48041;BME280;33815;48.386;11.738;2022-08-30T09:33:04;96848.53;;;24.74;69.28
48041;BME280;33815;48.386;11.738;2022-08-30T09:35:35;96845.56;;;24.99;64.60
48041;BME280;33815;48.386;11.738;2022-08-30T09:38:07;96845.63;;;24.87;66.78
48041;BME280;33815;48.386;11.738;2022-08-30T09:40:45;96829.34;;;25.01;60.78
48041;BME280;33815;48.386;11.738;2022-08-30T09:45:45;96834.19;;;25.04;64.22
48041;BME280;33815;48.386;11.738;2022-08-30T09:48:48;96805.34;;;25.29;62.11
48041;BME280;33815;48.386;11.738;2022-08-30T09:51:38;96823.59;;;25.21;58.40
48041;BME280;33815;48.386;11.738;2022-08-30T09:56:51;96816.72;;;24.96;59.99
48041;BME280;33815;48.386;11.738;2022-08-30T09:59:49;96818.53;;;25.07;61.94
48041;BME280;33815;48.386;11.738;2022-08-30T10:02:35;96814.78;;;25.32;63.82
48041;BME280;33815;48.386;11.738;2022-08-30T10:07:51;96806.72;;;25.95;57.39
48041;BME280;33815;48.386;11.738;2022-08-30T10:16:26;96790.31;;;26.20;56.47
48041;BME280;33815;48.386;11.738;2022-08-30T10:19:17;96790.66;;;25.90;54.70
48041;BME280;33815;48.386;11.738;2022-08-30T10:22:06;96787.09;;;26.18;56.55
48041;BME280;33815;48.386;11.738;2022-08-30T10:24:39;96780.28;;;26.49;57.58
48041;BME280;33815;48.386;11.738;2022-08-30T10:27:10;96773.69;;;26.74;53.15
48041;BME280;33815;48.386;11.738;2022-08-30T10:29:43;96776.44;;;27.07;56.16
48041;BME280;33815;48.386;11.738;2022-08-30T10:32:15;96766.34;;;27.14;52.18
48041;BME280;33815;48.386;11.738;2022-08-30T10:35:02;96770.56;;;27.05;53.06
48041;BME280;33815;48.386;11.738;2022-08-30T10:37:31;96776.16;;;27.03;55.17
48041;BME280;33815;48.386;11.738;2022-08-30T10:40:16;96765.63;;;27.18;52.96
48041;BME280;33815;48.386;11.738;2022-08-30T10:43:03;96754.03;;;27.13;49.76
48041;BME280;33815;48.386;11.738;2022-08-30T10:45:36;96760.19;;;27.35;49.55
48041;BME280;33815;48.386;11.738;2022-08-30T10:48:24;96757.13;;;27.54;47.92
48041;BME280;33815;48.386;11.738;2022-08-30T10:50:55;96756.28;;;27.48;50.09
48041;BME280;33815;48.386;11.738;2022-08-30T10:53:42;96766.97;;;27.81;49.91
48041;BME280;33815;48.386;11.738;2022-08-30T10:56:11;96746.59;;;28.12;48.10
48041;BME280;33815;48.386;11.738;2022-08-30T10:58:39;96753.38;;;27.88;50.13
48041;BME280;33815;48.386;11.738;2022-08-30T11:01:30;96760.22;;;27.73;48.95
48041;BME280;33815;48.386;11.738;2022-08-30T11:07:19;96753.88;;;27.52;48.94
48041;BME280;33815;48.386;11.738;2022-08-30T11:10:17;96757.00;;;27.71;49.25
48041;BME280;33815;48.386;11.738;2022-08-30T11:15:30;96749.34;;;28.23;48.37
48041;BME280;33815;48.386;11.738;2022-08-30T11:18:02;96749.50;;;28.53;47.77
48041;BME280;33815;48.386;11.738;2022-08-30T11:20:32;96737.19;;;28.58;45.59
48041;BME280;33815;48.386;11.738;2022-08-30T11:23:34;96723.69;;;28.37;42.37
48041;BME280;33815;48.386;11.738;2022-08-30T11:31:10;96728.91;;;28.64;42.41
48041;BME280;33815;48.386;11.738;2022-08-30T11:33:56;96722.41;;;28.55;41.82
48041;BME280;33815;48.386;11.738;2022-08-30T11:41:36;96726.88;;;29.23;44.02
48041;BME280;33815;48.386;11.738;2022-08-30T11:46:47;96707.34;;;29.38;42.74
48041;BME280;33815;48.386;11.738;2022-08-30T11:51:55;96715.81;;;28.78;44.14
48041;BME280;33815;48.386;11.738;2022-08-30T11:54:48;96729.47;;;28.77;43.05
48041;BME280;33815;48.386;11.738;2022-08-30T11:57:37;96730.31;;;28.24;46.05
48041;BME280;33815;48.386;11.738;2022-08-30T12:00:24;96719.47;;;28.57;43.40
48041;BME280;33815;48.386;11.738;2022-08-30T12:03:24;96701.31;;;28.74;43.97
48041;BME280;33815;48.386;11.738;2022-08-30T12:05:57;96713.22;;;29.19;41.60
48041;BME280;33815;48.386;11.738;2022-08-30T12:11:01;96698.16;;;29.03;40.62
48041;BME280;33815;48.386;11.738;2022-08-30T12:16:13;96694.97;;;29.68;42.09
48041;BME280;33815;48.386;11.738;2022-08-30T12:31:48;96689.94;;;30.52;40.20
48041;BME280;33815;48.386;11.738;2022-08-30T12:34:19;96673.22;;;30.61;40.10
48041;BME280;33815;48.386;11.738;2022-08-30T12:37:01;96682.34;;;30.70;37.97
48041;BME280;33815;48.386;11.738;2022-08-30T12:39:33;96666.00;;;30.51;38.30
48041;BME280;33815;48.386;11.738;2022-08-30T12:42:12;96673.34;;;30.30;34.89
48041;BME280;33815;48.386;11.738;2022-08-30T12:44:41;96677.50;;;29.91;37.35
48041;BME280;33815;48.386;11.738;2022-08-30T12:47:07;96669.41;;;30.72;37.03
48041;BME280;33815;48.386;11.738;2022-08-30T12:49:36;96671.50;;;30.80;38.29
48041;BME280;33815;48.386;11.738;2022-08-30T12:55:09;96666.50;;;31.08;36.99
48041;BME280;33815;48.386;11.738;2022-08-30T12:57:40;96666.00;;;31.06;39.79
48041;BME280;33815;48.386;11.738;2022-08-30T13:00:08;96672.78;;;31.33;39.91
48041;BME280;33815;48.386;11.738;2022-08-30T13:02:48;96667.97;;;31.30;36.97
48041;BME280;33815;48.386;11.738;2022-08-30T13:05:41;96652.03;;;31.33;33.85
48041;BME280;33815;48.386;11.738;2022-08-30T13:11:07;96657.59;;;31.13;34.88
48041;BME280;33815;48.386;11.738;2022-08-30T13:13:45;96658.63;;;30.77;34.96
48041;BME280;33815;48.386;11.738;2022-08-30T13:19:30;96649.63;;;31.32;35.16
48041;BME280;33815;48.386;11.738;2022-08-30T13:21:57;96645.72;;;31.48;35.06
48041;BME280;33815;48.386;11.738;2022-08-30T13:24:23;96637.69;;;31.97;32.85
48041;BME280;33815;48.386;11.738;2022-08-30T13:26:49;96630.16;;;31.40;32.43
48041;BME280;33815;48.386;11.738;2022-08-30T13:29:16;96634.19;;;31.13;38.13
48041;BME280;33815;48.386;11.738;2022-08-30T13:31:43;96628.94;;;31.56;32.19
48041;BME280;33815;48.386;11.738;2022-08-30T13:34:08;96625.66;;;31.35;31.34
48041;BME280;33815;48.386;11.738;2022-08-30T13:36:36;96621.22;;;31.15;34.78
48041;BME280;33815;48.386;11.738;2022-08-30T13:39:04;96627.78;;;31.04;33.38
48041;BME280;33815;48.386;11.738;2022-08-30T13:41:29;96614.28;;;31.09;35.27
48041;BME280;33815;48.386;11.738;2022-08-30T13:43:55;96618.13;;;30.98;34.56
48041;BME280;33815;48.386;11.738;2022-08-30T13:46:21;96618.31;;;31.12;36.01
48041;BME280;33815;48.386;11.738;2022-08-30T13:48:57;96615.44;;;30.98;34.97
48041;BME280;33815;48.386;11.738;2022-08-30T13:51:24;96591.78;;;30.95;33.81
48041;BME280;33815;48.386;11.738;2022-08-30T13:53:50;96599.56;;;30.96;33.82
48041;BME280;33815;48.386;11.738;2022-08-30T13:56:15;96598.41;;;31.07;36.38
48041;BME280;33815;48.386;11.738;2022-08-30T13:58:40;96593.69;;;31.23;34.91
48041;BME280;33815;48.386;11.738;2022-08-30T14:01:06;96603.38;;;31.24;34.01
48041;BME280;33815;48.386;11.738;2022-08-30T14:03:31;96593.97;;;30.87;34.44